sensor_id;sensor_type;location;lat;lon;timestamp;P1;durP1;ratioP1;P2;durP2;ratioP2
49029;SDS011;43337;52.070;4.508;2022-12-11T00:00:21;58.95;;;22.92;;
49029;SDS011;43337;52.070;4.508;2022-12-11T00:02:47;52.05;;;23.58;;
49029;SDS011;43337;52.070;4.508;2022-12-11T00:05:13;55.80;;;23.75;;
49029;SDS011;43337;52.070;4.508;2022-12-11T00:07:39;51.85;;;22.33;;
49029;SDS011;43337;52.070;4.508;2022-12-11T00:10:04;54.90;;;22.95;;
49029;SDS011;43337;52.070;4.508;2022-12-11T00:12:31;55.40;;;22.02;;
49029;SDS011;43337;52.070;4.508;2022-12-11T00:14:56;51.22;;;22.20;;
49029;SDS011;43337;52.070;4.508;2022-12-11T00:17:21;53.13;;;23.05;;
49029;SDS011;43337;52.070;4.508;2022-12-11T00:19:47;49.35;;;21.25;;
49029;SDS011;43337;52.070;4.508;2022-12-11T00:22:12;49.88;;;21.50;;
49029;SDS011;43337;52.070;4.508;2022-12-11T00:24:38;49.90;;;20.90;;
49029;SDS011;43337;52.070;4.508;2022-12-11T00:27:03;53.42;;;23.35;;
49029;SDS011;43337;52.070;4.508;2022-12-11T00:29:29;52.20;;;22.55;;
49029;SDS011;43337;52.070;4.508;2022-12-11T00:31:54;48.78;;;20.33;;
49029;SDS011;43337;52.070;4.508;2022-12-11T00:34:19;50.13;;;20.80;;
49029;SDS011;43337;52.070;4.508;2022-12-11T00:36:45;56.00;;;24.27;;
49029;SDS011;43337;52.070;4.508;2022-12-11T00:39:10;54.92;;;22.52;;
49029;SDS011;43337;52.070;4.508;2022-12-11T00:41:38;47.35;;;20.92;;
49029;SDS011;43337;52.070;4.508;2022-12-11T00:44:03;53.67;;;22.75;;
49029;SDS011;43337;52.070;4.508;2022-12-11T00:46:29;53.08;;;22.30;;
49029;SDS011;43337;52.070;4.508;2022-12-11T00:48:54;51.90;;;22.42;;
49029;SDS011;43337;52.070;4.508;2022-12-11T00:51:20;50.75;;;22.15;;
49029;SDS011;43337;52.070;4.508;2022-12-11T00:53:45;53.97;;;21.52;;
49029;SDS011;43337;52.070;4.508;2022-12-11T00:56:11;48.17;;;21.45;;
49029;SDS011;43337;52.070;4.508;2022-12-11T00:58:41;51.42;;;21.65;;
49029;SDS011;43337;52.070;4.508;2022-12-11T01:01:08;49.53;;;21.95;;
49029;SDS011;43337;52.070;4.508;2022-12-11T01:03:36;46.33;;;20.48;;
49029;SDS011;43337;52.070;4.508;2022-12-11T01:06:02;47.50;;;22.67;;
49029;SDS011;43337;52.070;4.508;2022-12-11T01:08:28;52.28;;;22.52;;
49029;SDS011;43337;52.070;4.508;2022-12-11T01:11:01;47.83;;;21.70;;
49029;SDS011;43337;52.070;4.508;2022-12-11T01:13:31;40.50;;;19.27;;
49029;SDS011;43337;52.070;4.508;2022-12-11T01:15:56;44.00;;;19.73;;
49029;SDS011;43337;52.070;4.508;2022-12-11T01:18:22;49.10;;;21.35;;
49029;SDS011;43337;52.070;4.508;2022-12-11T01:20:47;48.50;;;20.92;;
49029;SDS011;43337;52.070;4.508;2022-12-11T01:23:13;41.58;;;18.98;;
49029;SDS011;43337;52.070;4.508;2022-12-11T01:25:38;46.25;;;21.05;;
49029;SDS011;43337;52.070;4.508;2022-12-11T01:28:04;41.75;;;20.15;;
49029;SDS011;43337;52.070;4.508;2022-12-11T01:30:30;42.40;;;19.25;;
49029;SDS011;43337;52.070;4.508;2022-12-11T01:32:56;45.83;;;20.92;;
49029;SDS011;43337;52.070;4.508;2022-12-11T01:35:21;43.47;;;18.80;;
49029;SDS011;43337;52.070;4.508;2022-12-11T01:37:47;39.65;;;17.30;;
49029;SDS011;43337;52.070;4.508;2022-12-11T01:40:14;46.40;;;19.38;;
49029;SDS011;43337;52.070;4.508;2022-12-11T01:42:42;42.10;;;18.70;;
49029;SDS011;43337;52.070;4.508;2022-12-11T01:45:28;45.53;;;18.23;;
49029;SDS011;43337;52.070;4.508;2022-12-11T01:48:06;39.40;;;16.88;;
49029;SDS011;43337;52.070;4.508;2022-12-11T01:50:37;40.85;;;17.08;;
49029;SDS011;43337;52.070;4.508;2022-12-11T01:53:09;44.97;;;18.17;;
49029;SDS011;43337;52.070;4.508;2022-12-11T01:55:37;39.85;;;17.85;;
49029;SDS011;43337;52.070;4.508;2022-12-11T01:58:04;42.85;;;17.88;;
49029;SDS011;43337;52.070;4.508;2022-12-11T02:00:30;47.95;;;18.13;;
49029;SDS011;43337;52.070;4.508;2022-12-11T02:02:56;39.92;;;17.25;;
49029;SDS011;43337;52.070;4.508;2022-12-11T02:05:21;41.15;;;18.63;;
49029;SDS011;43337;52.070;4.508;2022-12-11T02:07:47;46.05;;;18.38;;
49029;SDS011;43337;52.070;4.508;2022-12-11T02:10:16;43.58;;;17.70;;
49029;SDS011;43337;52.070;4.508;2022-12-11T02:12:47;41.33;;;18.15;;
49029;SDS011;43337;52.070;4.508;2022-12-11T02:20:53;47.17;;;19.67;;
49029;SDS011;43337;52.070;4.508;2022-12-11T02:28:56;49.03;;;18.95;;
49029;SDS011;43337;52.070;4.508;2022-12-11T02:31:28;43.60;;;18.88;;
49029;SDS011;43337;52.070;4.508;2022-12-11T02:34:11;45.10;;;19.95;;
49029;SDS011;43337;52.070;4.508;2022-12-11T02:36:39;44.50;;;18.20;;
49029;SDS011;43337;52.070;4.508;2022-12-11T02:39:09;45.20;;;19.10;;
49029;SDS011;43337;52.070;4.508;2022-12-11T02:41:37;54.08;;;21.05;;
49029;SDS011;43337;52.070;4.508;2022-12-11T02:44:07;46.78;;;18.80;;
49029;SDS011;43337;52.070;4.508;2022-12-11T02:46:37;53.00;;;19.20;;
49029;SDS011;43337;52.070;4.508;2022-12-11T02:49:04;50.67;;;19.73;;
49029;SDS011;43337;52.070;4.508;2022-12-11T02:51:33;54.78;;;20.90;;
49029;SDS011;43337;52.070;4.508;2022-12-11T02:54:03;54.10;;;19.33;;
49029;SDS011;43337;52.070;4.508;2022-12-11T02:56:37;48.83;;;19.02;;
49029;SDS011;43337;52.070;4.508;2022-12-11T02:59:13;49.80;;;19.95;;
49029;SDS011;43337;52.070;4.508;2022-12-11T03:01:42;45.80;;;18.15;;
49029;SDS011;43337;52.070;4.508;2022-12-11T03:04:09;49.20;;;19.90;;
49029;SDS011;43337;52.070;4.508;2022-12-11T03:06:36;49.67;;;19.30;;
49029;SDS011;43337;52.070;4.508;2022-12-11T03:09:06;56.80;;;19.27;;
49029;SDS011;43337;52.070;4.508;2022-12-11T03:11:32;44.30;;;17.77;;
49029;SDS011;43337;52.070;4.508;2022-12-11T03:13:57;55.28;;;21.40;;
49029;SDS011;43337;52.070;4.508;2022-12-11T03:21:51;53.47;;;20.35;;
49029;SDS011;43337;52.070;4.508;2022-12-11T03:24:21;48.10;;;18.88;;
49029;SDS011;43337;52.070;4.508;2022-12-11T03:26:55;48.47;;;19.98;;
49029;SDS011;43337;52.070;4.508;2022-12-11T03:29:28;51.40;;;20.10;;
49029;SDS011;43337;52.070;4.508;2022-12-11T03:32:02;48.37;;;19.03;;
49029;SDS011;43337;52.070;4.508;2022-12-11T03:34:43;50.17;;;18.65;;
49029;SDS011;43337;52.070;4.508;2022-12-11T03:37:12;53.60;;;19.10;;
49029;SDS011;43337;52.070;4.508;2022-12-11T03:39:41;58.03;;;19.40;;
49029;SDS011;43337;52.070;4.508;2022-12-11T03:42:12;46.55;;;19.48;;
49029;SDS011;43337;52.070;4.508;2022-12-11T03:44:39;46.95;;;18.77;;
49029;SDS011;43337;52.070;4.508;2022-12-11T03:47:11;48.63;;;18.88;;
49029;SDS011;43337;52.070;4.508;2022-12-11T03:49:42;45.28;;;18.27;;
49029;SDS011;43337;52.070;4.508;2022-12-11T03:52:10;47.00;;;18.05;;
49029;SDS011;43337;52.070;4.508;2022-12-11T03:54:37;49.38;;;17.65;;
49029;SDS011;43337;52.070;4.508;2022-12-11T03:57:04;47.28;;;18.73;;
49029;SDS011;43337;52.070;4.508;2022-12-11T03:59:32;43.03;;;17.58;;
49029;SDS011;43337;52.070;4.508;2022-12-11T04:01:57;48.03;;;19.13;;
49029;SDS011;43337;52.070;4.508;2022-12-11T04:04:23;50.75;;;18.38;;
49029;SDS011;43337;52.070;4.508;2022-12-11T04:06:49;43.70;;;17.55;;
49029;SDS011;43337;52.070;4.508;2022-12-11T04:09:14;43.70;;;17.15;;
49029;SDS011;43337;52.070;4.508;2022-12-11T04:11:40;42.35;;;18.15;;
49029;SDS011;43337;52.070;4.508;2022-12-11T04:14:10;48.70;;;18.42;;
49029;SDS011;43337;52.070;4.508;2022-12-11T04:16:56;43.83;;;16.73;;
49029;SDS011;43337;52.070;4.508;2022-12-11T04:19:23;41.13;;;15.48;;
49029;SDS011;43337;52.070;4.508;2022-12-11T04:22:09;35.95;;;15.27;;
49029;SDS011;43337;52.070;4.508;2022-12-11T04:24:54;43.35;;;16.67;;
49029;SDS011;43337;52.070;4.508;2022-12-11T04:27:20;36.47;;;16.45;;
49029;SDS011;43337;52.070;4.508;2022-12-11T04:30:04;39.30;;;15.65;;
49029;SDS011;43337;52.070;4.508;2022-12-11T04:32:31;35.28;;;16.25;;
49029;SDS011;43337;52.070;4.508;2022-12-11T04:34:57;38.92;;;15.10;;
49029;SDS011;43337;52.070;4.508;2022-12-11T04:37:22;27.40;;;12.90;;
49029;SDS011;43337;52.070;4.508;2022-12-11T04:39:48;35.38;;;13.63;;
49029;SDS011;43337;52.070;4.508;2022-12-11T04:42:13;31.40;;;13.48;;
49029;SDS011;43337;52.070;4.508;2022-12-11T04:44:39;33.22;;;14.60;;
49029;SDS011;43337;52.070;4.508;2022-12-11T04:47:04;41.65;;;14.70;;
49029;SDS011;43337;52.070;4.508;2022-12-11T04:49:30;31.70;;;13.57;;
49029;SDS011;43337;52.070;4.508;2022-12-11T04:51:55;36.13;;;15.00;;
49029;SDS011;43337;52.070;4.508;2022-12-11T04:54:20;37.38;;;14.57;;
49029;SDS011;43337;52.070;4.508;2022-12-11T04:56:46;34.72;;;14.18;;
49029;SDS011;43337;52.070;4.508;2022-12-11T04:59:11;35.70;;;13.15;;
49029;SDS011;43337;52.070;4.508;2022-12-11T05:01:36;34.47;;;12.98;;
49029;SDS011;43337;52.070;4.508;2022-12-11T05:04:02;31.05;;;11.77;;
49029;SDS011;43337;52.070;4.508;2022-12-11T05:06:27;31.38;;;12.60;;
49029;SDS011;43337;52.070;4.508;2022-12-11T05:08:52;31.52;;;13.32;;
49029;SDS011;43337;52.070;4.508;2022-12-11T05:11:18;28.23;;;11.70;;
49029;SDS011;43337;52.070;4.508;2022-12-11T05:13:44;30.77;;;12.25;;
49029;SDS011;43337;52.070;4.508;2022-12-11T05:16:11;37.80;;;12.15;;
49029;SDS011;43337;52.070;4.508;2022-12-11T05:18:38;29.20;;;12.52;;
49029;SDS011;43337;52.070;4.508;2022-12-11T05:21:04;29.70;;;11.98;;
49029;SDS011;43337;52.070;4.508;2022-12-11T05:23:32;31.50;;;12.20;;
49029;SDS011;43337;52.070;4.508;2022-12-11T05:25:58;26.50;;;10.95;;
49029;SDS011;43337;52.070;4.508;2022-12-11T05:28:26;24.58;;;10.10;;
49029;SDS011;43337;52.070;4.508;2022-12-11T05:30:56;24.75;;;10.00;;
49029;SDS011;43337;52.070;4.508;2022-12-11T05:33:26;22.73;;;9.50;;
49029;SDS011;43337;52.070;4.508;2022-12-11T05:35:52;24.15;;;10.93;;
49029;SDS011;43337;52.070;4.508;2022-12-11T05:38:17;25.77;;;10.25;;
49029;SDS011;43337;52.070;4.508;2022-12-11T05:40:43;26.33;;;10.80;;
49029;SDS011;43337;52.070;4.508;2022-12-11T05:43:08;24.77;;;10.75;;
49029;SDS011;43337;52.070;4.508;2022-12-11T05:45:34;28.35;;;10.68;;
49029;SDS011;43337;52.070;4.508;2022-12-11T05:47:59;22.48;;;9.43;;
49029;SDS011;43337;52.070;4.508;2022-12-11T05:50:25;25.90;;;9.98;;
49029;SDS011;43337;52.070;4.508;2022-12-11T05:52:50;21.15;;;9.48;;
49029;SDS011;43337;52.070;4.508;2022-12-11T05:55:16;26.70;;;10.65;;
49029;SDS011;43337;52.070;4.508;2022-12-11T05:57:41;24.52;;;10.15;;
49029;SDS011;43337;52.070;4.508;2022-12-11T06:00:06;26.73;;;10.93;;
49029;SDS011;43337;52.070;4.508;2022-12-11T06:02:34;24.63;;;9.98;;
49029;SDS011;43337;52.070;4.508;2022-12-11T06:04:59;22.70;;;10.25;;
49029;SDS011;43337;52.070;4.508;2022-12-11T06:07:25;24.98;;;10.23;;
49029;SDS011;43337;52.070;4.508;2022-12-11T06:09:50;23.27;;;9.85;;
49029;SDS011;43337;52.070;4.508;2022-12-11T06:12:16;22.58;;;9.93;;
49029;SDS011;43337;52.070;4.508;2022-12-11T06:14:41;23.52;;;9.65;;
49029;SDS011;43337;52.070;4.508;2022-12-11T06:17:07;27.27;;;11.80;;
49029;SDS011;43337;52.070;4.508;2022-12-11T06:19:32;24.10;;;10.38;;
49029;SDS011;43337;52.070;4.508;2022-12-11T06:21:57;26.92;;;10.05;;
49029;SDS011;43337;52.070;4.508;2022-12-11T06:24:23;29.92;;;11.40;;
49029;SDS011;43337;52.070;4.508;2022-12-11T06:26:48;29.42;;;11.57;;
49029;SDS011;43337;52.070;4.508;2022-12-11T06:29:13;29.33;;;10.70;;
49029;SDS011;43337;52.070;4.508;2022-12-11T06:31:39;27.05;;;10.57;;
49029;SDS011;43337;52.070;4.508;2022-12-11T06:34:05;27.55;;;10.48;;
49029;SDS011;43337;52.070;4.508;2022-12-11T06:36:31;25.60;;;10.95;;
49029;SDS011;43337;52.070;4.508;2022-12-11T06:38:56;27.48;;;10.60;;
49029;SDS011;43337;52.070;4.508;2022-12-11T06:41:21;30.15;;;11.70;;
49029;SDS011;43337;52.070;4.508;2022-12-11T06:43:47;26.40;;;11.00;;
49029;SDS011;43337;52.070;4.508;2022-12-11T06:46:14;28.40;;;10.45;;
49029;SDS011;43337;52.070;4.508;2022-12-11T06:48:41;29.15;;;10.10;;
49029;SDS011;43337;52.070;4.508;2022-12-11T06:51:08;28.98;;;11.32;;
49029;SDS011;43337;52.070;4.508;2022-12-11T06:53:36;29.52;;;10.88;;
49029;SDS011;43337;52.070;4.508;2022-12-11T06:56:06;31.48;;;11.90;;
49029;SDS011;43337;52.070;4.508;2022-12-11T06:58:35;38.53;;;14.10;;
49029;SDS011;43337;52.070;4.508;2022-12-11T07:01:02;34.35;;;12.98;;
49029;SDS011;43337;52.070;4.508;2022-12-11T07:03:28;34.45;;;13.77;;
49029;SDS011;43337;52.070;4.508;2022-12-11T07:05:58;36.88;;;13.95;;
49029;SDS011;43337;52.070;4.508;2022-12-11T07:08:26;40.85;;;14.18;;
49029;SDS011;43337;52.070;4.508;2022-12-11T07:10:52;37.38;;;14.30;;
49029;SDS011;43337;52.070;4.508;2022-12-11T07:13:17;33.50;;;13.32;;
49029;SDS011;43337;52.070;4.508;2022-12-11T07:15:43;37.25;;;13.23;;
49029;SDS011;43337;52.070;4.508;2022-12-11T07:18:08;39.97;;;15.32;;
49029;SDS011;43337;52.070;4.508;2022-12-11T07:20:34;37.70;;;13.45;;
49029;SDS011;43337;52.070;4.508;2022-12-11T07:23:00;38.72;;;13.77;;
49029;SDS011;43337;52.070;4.508;2022-12-11T07:25:25;43.33;;;14.05;;
49029;SDS011;43337;52.070;4.508;2022-12-11T07:27:50;43.88;;;13.95;;
49029;SDS011;43337;52.070;4.508;2022-12-11T07:30:16;39.03;;;13.25;;
49029;SDS011;43337;52.070;4.508;2022-12-11T07:32:41;30.35;;;12.90;;
49029;SDS011;43337;52.070;4.508;2022-12-11T07:35:07;35.63;;;13.18;;
49029;SDS011;43337;52.070;4.508;2022-12-11T07:37:32;34.03;;;13.20;;
49029;SDS011;43337;52.070;4.508;2022-12-11T07:39:58;39.63;;;14.43;;
49029;SDS011;43337;52.070;4.508;2022-12-11T07:42:23;37.20;;;13.73;;
49029;SDS011;43337;52.070;4.508;2022-12-11T07:44:48;38.78;;;14.00;;
49029;SDS011;43337;52.070;4.508;2022-12-11T07:47:14;40.10;;;13.60;;
49029;SDS011;43337;52.070;4.508;2022-12-11T07:49:39;40.15;;;14.00;;
49029;SDS011;43337;52.070;4.508;2022-12-11T07:52:04;38.85;;;13.88;;
49029;SDS011;43337;52.070;4.508;2022-12-11T07:54:30;35.80;;;13.18;;
49029;SDS011;43337;52.070;4.508;2022-12-11T07:56:55;37.70;;;13.68;;
49029;SDS011;43337;52.070;4.508;2022-12-11T07:59:21;35.40;;;13.90;;
49029;SDS011;43337;52.070;4.508;2022-12-11T08:01:46;40.90;;;13.82;;
49029;SDS011;43337;52.070;4.508;2022-12-11T08:04:12;34.33;;;13.15;;
49029;SDS011;43337;52.070;4.508;2022-12-11T08:06:39;38.92;;;13.70;;
49029;SDS011;43337;52.070;4.508;2022-12-11T08:09:08;37.25;;;13.13;;
49029;SDS011;43337;52.070;4.508;2022-12-11T08:11:35;38.05;;;14.00;;
49029;SDS011;43337;52.070;4.508;2022-12-11T08:14:00;34.35;;;14.13;;
49029;SDS011;43337;52.070;4.508;2022-12-11T08:16:26;40.65;;;13.15;;
49029;SDS011;43337;52.070;4.508;2022-12-11T08:18:52;40.15;;;13.68;;
49029;SDS011;43337;52.070;4.508;2022-12-11T08:21:21;37.42;;;13.80;;
49029;SDS011;43337;52.070;4.508;2022-12-11T08:23:49;36.03;;;13.32;;
49029;SDS011;43337;52.070;4.508;2022-12-11T08:26:17;38.15;;;13.85;;
49029;SDS011;43337;52.070;4.508;2022-12-11T08:28:44;35.78;;;14.35;;
49029;SDS011;43337;52.070;4.508;2022-12-11T08:31:10;40.80;;;14.00;;
49029;SDS011;43337;52.070;4.508;2022-12-11T08:33:37;36.53;;;14.05;;
49029;SDS011;43337;52.070;4.508;2022-12-11T08:36:06;36.75;;;13.88;;
49029;SDS011;43337;52.070;4.508;2022-12-11T08:38:34;33.40;;;14.07;;
49029;SDS011;43337;52.070;4.508;2022-12-11T08:41:10;33.05;;;13.15;;
49029;SDS011;43337;52.070;4.508;2022-12-11T08:43:37;32.80;;;12.55;;
49029;SDS011;43337;52.070;4.508;2022-12-11T08:46:03;34.85;;;12.95;;
49029;SDS011;43337;52.070;4.508;2022-12-11T08:48:29;33.33;;;12.95;;
49029;SDS011;43337;52.070;4.508;2022-12-11T08:50:57;32.58;;;12.35;;
49029;SDS011;43337;52.070;4.508;2022-12-11T08:53:25;29.38;;;11.95;;
49029;SDS011;43337;52.070;4.508;2022-12-11T08:55:52;31.98;;;14.05;;
49029;SDS011;43337;52.070;4.508;2022-12-11T08:58:17;33.40;;;13.15;;
49029;SDS011;43337;52.070;4.508;2022-12-11T09:00:42;33.40;;;13.13;;
49029;SDS011;43337;52.070;4.508;2022-12-11T09:03:07;33.53;;;13.20;;
49029;SDS011;43337;52.070;4.508;2022-12-11T09:05:33;36.50;;;13.73;;
49029;SDS011;43337;52.070;4.508;2022-12-11T09:07:58;38.60;;;15.05;;
49029;SDS011;43337;52.070;4.508;2022-12-11T09:10:23;38.97;;;14.55;;
49029;SDS011;43337;52.070;4.508;2022-12-11T09:12:49;32.17;;;12.85;;
49029;SDS011;43337;52.070;4.508;2022-12-11T09:15:14;37.33;;;13.15;;
49029;SDS011;43337;52.070;4.508;2022-12-11T09:17:40;37.67;;;12.68;;
49029;SDS011;43337;52.070;4.508;2022-12-11T09:20:05;35.78;;;13.45;;
49029;SDS011;43337;52.070;4.508;2022-12-11T09:22:31;31.85;;;12.70;;
49029;SDS011;43337;52.070;4.508;2022-12-11T09:24:58;34.55;;;13.43;;
49029;SDS011;43337;52.070;4.508;2022-12-11T09:27:23;41.13;;;14.77;;
49029;SDS011;43337;52.070;4.508;2022-12-11T09:29:49;40.40;;;14.38;;
49029;SDS011;43337;52.070;4.508;2022-12-11T09:32:15;37.17;;;15.32;;
49029;SDS011;43337;52.070;4.508;2022-12-11T09:34:41;41.28;;;15.55;;
49029;SDS011;43337;52.070;4.508;2022-12-11T09:37:06;33.55;;;13.77;;
49029;SDS011;43337;52.070;4.508;2022-12-11T09:39:31;34.85;;;14.55;;
49029;SDS011;43337;52.070;4.508;2022-12-11T09:42:03;34.38;;;14.55;;
49029;SDS011;43337;52.070;4.508;2022-12-11T09:47:42;38.80;;;15.20;;
49029;SDS011;43337;52.070;4.508;2022-12-11T09:55:18;35.55;;;13.68;;
49029;SDS011;43337;52.070;4.508;2022-12-11T10:01:00;32.45;;;13.07;;
49029;SDS011;43337;52.070;4.508;2022-12-11T10:17:19;36.13;;;14.15;;
49029;SDS011;43337;52.070;4.508;2022-12-11T10:19:53;36.88;;;13.35;;
49029;SDS011;43337;52.070;4.508;2022-12-11T10:22:22;35.08;;;14.90;;
49029;SDS011;43337;52.070;4.508;2022-12-11T10:24:58;33.00;;;13.80;;
49029;SDS011;43337;52.070;4.508;2022-12-11T10:27:30;45.08;;;17.67;;
49029;SDS011;43337;52.070;4.508;2022-12-11T10:30:00;36.53;;;15.15;;
49029;SDS011;43337;52.070;4.508;2022-12-11T10:32:36;43.83;;;17.20;;
49029;SDS011;43337;52.070;4.508;2022-12-11T10:35:25;41.88;;;15.48;;
49029;SDS011;43337;52.070;4.508;2022-12-11T10:38:23;40.45;;;14.75;;
49029;SDS011;43337;52.070;4.508;2022-12-11T10:41:09;40.83;;;15.68;;
49029;SDS011;43337;52.070;4.508;2022-12-11T10:43:39;42.70;;;17.10;;
49029;SDS011;43337;52.070;4.508;2022-12-11T10:46:13;39.33;;;15.02;;
49029;SDS011;43337;52.070;4.508;2022-12-11T10:49:19;40.38;;;15.57;;
49029;SDS011;43337;52.070;4.508;2022-12-11T10:51:44;37.63;;;15.43;;
49029;SDS011;43337;52.070;4.508;2022-12-11T10:54:17;41.70;;;15.20;;
49029;SDS011;43337;52.070;4.508;2022-12-11T10:56:53;40.08;;;16.83;;
49029;SDS011;43337;52.070;4.508;2022-12-11T10:59:25;43.40;;;16.27;;
49029;SDS011;43337;52.070;4.508;2022-12-11T11:01:54;38.95;;;15.35;;
49029;SDS011;43337;52.070;4.508;2022-12-11T11:04:20;37.05;;;14.48;;
49029;SDS011;43337;52.070;4.508;2022-12-11T11:07:00;33.40;;;13.60;;
49029;SDS011;43337;52.070;4.508;2022-12-11T11:09:45;29.27;;;12.40;;
49029;SDS011;43337;52.070;4.508;2022-12-11T11:12:18;33.33;;;13.45;;
49029;SDS011;43337;52.070;4.508;2022-12-11T11:15:00;32.85;;;13.18;;
49029;SDS011;43337;52.070;4.508;2022-12-11T11:17:26;34.75;;;14.00;;
49029;SDS011;43337;52.070;4.508;2022-12-11T11:19:52;31.08;;;13.65;;
49029;SDS011;43337;52.070;4.508;2022-12-11T11:22:18;31.50;;;12.98;;
49029;SDS011;43337;52.070;4.508;2022-12-11T11:24:56;30.95;;;12.05;;
49029;SDS011;43337;52.070;4.508;2022-12-11T11:27:27;29.27;;;11.85;;
49029;SDS011;43337;52.070;4.508;2022-12-11T11:29:59;28.35;;;11.48;;
49029;SDS011;43337;52.070;4.508;2022-12-11T11:32:37;29.42;;;12.10;;
49029;SDS011;43337;52.070;4.508;2022-12-11T11:35:14;31.33;;;12.50;;
49029;SDS011;43337;52.070;4.508;2022-12-11T11:37:51;37.88;;;14.85;;
49029;SDS011;43337;52.070;4.508;2022-12-11T11:40:30;32.30;;;14.48;;
49029;SDS011;43337;52.070;4.508;2022-12-11T11:48:57;48.10;;;17.25;;
49029;SDS011;43337;52.070;4.508;2022-12-11T11:51:33;36.75;;;14.52;;
49029;SDS011;43337;52.070;4.508;2022-12-11T11:54:06;40.55;;;15.88;;
49029;SDS011;43337;52.070;4.508;2022-12-11T11:56:45;42.40;;;15.82;;
49029;SDS011;43337;52.070;4.508;2022-12-11T11:59:17;42.38;;;15.80;;
49029;SDS011;43337;52.070;4.508;2022-12-11T12:01:53;34.53;;;13.98;;
49029;SDS011;43337;52.070;4.508;2022-12-11T12:04:20;37.40;;;15.77;;
49029;SDS011;43337;52.070;4.508;2022-12-11T12:06:56;38.40;;;14.77;;
49029;SDS011;43337;52.070;4.508;2022-12-11T12:12:25;34.75;;;13.98;;
49029;SDS011;43337;52.070;4.508;2022-12-11T12:28:42;41.42;;;15.75;;
49029;SDS011;43337;52.070;4.508;2022-12-11T12:34:07;38.30;;;14.45;;
49029;SDS011;43337;52.070;4.508;2022-12-11T12:36:45;36.78;;;14.93;;
49029;SDS011;43337;52.070;4.508;2022-12-11T12:42:08;31.85;;;13.63;;
49029;SDS011;43337;52.070;4.508;2022-12-11T12:44:45;31.63;;;13.30;;
49029;SDS011;43337;52.070;4.508;2022-12-11T12:47:26;34.00;;;12.43;;
49029;SDS011;43337;52.070;4.508;2022-12-11T12:49:55;30.05;;;12.88;;
49029;SDS011;43337;52.070;4.508;2022-12-11T12:52:34;32.20;;;12.45;;
49029;SDS011;43337;52.070;4.508;2022-12-11T12:55:13;28.08;;;11.05;;
49029;SDS011;43337;52.070;4.508;2022-12-11T12:57:48;26.90;;;11.23;;
49029;SDS011;43337;52.070;4.508;2022-12-11T13:00:29;32.60;;;11.85;;
49029;SDS011;43337;52.070;4.508;2022-12-11T13:02:58;27.13;;;11.85;;
49029;SDS011;43337;52.070;4.508;2022-12-11T13:05:28;31.88;;;14.48;;
49029;SDS011;43337;52.070;4.508;2022-12-11T13:08:03;34.35;;;14.25;;
49029;SDS011;43337;52.070;4.508;2022-12-11T13:10:39;28.10;;;12.38;;
49029;SDS011;43337;52.070;4.508;2022-12-11T13:15:54;25.58;;;10.90;;
49029;SDS011;43337;52.070;4.508;2022-12-11T13:18:49;28.13;;;11.25;;
49029;SDS011;43337;52.070;4.508;2022-12-11T13:21:25;29.05;;;12.15;;
49029;SDS011;43337;52.070;4.508;2022-12-11T13:26:46;31.55;;;12.45;;
49029;SDS011;43337;52.070;4.508;2022-12-11T13:31:59;33.20;;;13.55;;
49029;SDS011;43337;52.070;4.508;2022-12-11T13:34:32;30.75;;;13.55;;
49029;SDS011;43337;52.070;4.508;2022-12-11T13:37:01;30.42;;;12.35;;
49029;SDS011;43337;52.070;4.508;2022-12-11T13:39:29;31.83;;;13.18;;
49029;SDS011;43337;52.070;4.508;2022-12-11T13:42:06;32.28;;;13.13;;
49029;SDS011;43337;52.070;4.508;2022-12-11T13:44:45;30.95;;;13.32;;
49029;SDS011;43337;52.070;4.508;2022-12-11T13:47:13;38.78;;;15.98;;
49029;SDS011;43337;52.070;4.508;2022-12-11T13:49:41;30.60;;;11.77;;
49029;SDS011;43337;52.070;4.508;2022-12-11T13:52:16;30.05;;;12.00;;
49029;SDS011;43337;52.070;4.508;2022-12-11T13:54:47;24.13;;;10.80;;
49029;SDS011;43337;52.070;4.508;2022-12-11T13:57:16;28.10;;;11.75;;
49029;SDS011;43337;52.070;4.508;2022-12-11T13:59:49;36.53;;;14.82;;
49029;SDS011;43337;52.070;4.508;2022-12-11T14:02:24;33.45;;;13.20;;
49029;SDS011;43337;52.070;4.508;2022-12-11T14:04:57;28.48;;;12.07;;
49029;SDS011;43337;52.070;4.508;2022-12-11T14:07:27;23.98;;;11.43;;
49029;SDS011;43337;52.070;4.508;2022-12-11T14:09:58;29.95;;;12.25;;
49029;SDS011;43337;52.070;4.508;2022-12-11T14:12:52;23.48;;;10.68;;
49029;SDS011;43337;52.070;4.508;2022-12-11T14:15:26;24.35;;;10.35;;
49029;SDS011;43337;52.070;4.508;2022-12-11T14:17:53;26.15;;;10.60;;
49029;SDS011;43337;52.070;4.508;2022-12-11T14:20:21;20.23;;;9.35;;
49029;SDS011;43337;52.070;4.508;2022-12-11T14:25:40;24.73;;;10.20;;
49029;SDS011;43337;52.070;4.508;2022-12-11T14:28:13;23.20;;;9.75;;
49029;SDS011;43337;52.070;4.508;2022-12-11T14:30:41;25.50;;;9.20;;
49029;SDS011;43337;52.070;4.508;2022-12-11T14:33:11;24.13;;;10.25;;
49029;SDS011;43337;52.070;4.508;2022-12-11T14:35:38;19.77;;;8.70;;
49029;SDS011;43337;52.070;4.508;2022-12-11T14:38:16;28.73;;;10.90;;
49029;SDS011;43337;52.070;4.508;2022-12-11T14:40:52;27.48;;;11.48;;
49029;SDS011;43337;52.070;4.508;2022-12-11T14:46:09;26.60;;;10.57;;
49029;SDS011;43337;52.070;4.508;2022-12-11T14:48:49;24.67;;;9.48;;
49029;SDS011;43337;52.070;4.508;2022-12-11T14:51:19;22.05;;;9.77;;
49029;SDS011;43337;52.070;4.508;2022-12-11T14:53:49;27.20;;;10.18;;
49029;SDS011;43337;52.070;4.508;2022-12-11T14:56:22;27.08;;;11.52;;
49029;SDS011;43337;52.070;4.508;2022-12-11T15:01:26;27.65;;;9.95;;
49029;SDS011;43337;52.070;4.508;2022-12-11T15:04:14;24.10;;;10.23;;
49029;SDS011;43337;52.070;4.508;2022-12-11T15:06:50;20.83;;;8.45;;
49029;SDS011;43337;52.070;4.508;2022-12-11T15:12:16;18.83;;;8.10;;
49029;SDS011;43337;52.070;4.508;2022-12-11T15:14:47;24.23;;;10.18;;
49029;SDS011;43337;52.070;4.508;2022-12-11T15:17:21;21.17;;;8.40;;
49029;SDS011;43337;52.070;4.508;2022-12-11T15:19:56;20.13;;;9.32;;
49029;SDS011;43337;52.070;4.508;2022-12-11T15:22:32;24.30;;;9.25;;
49029;SDS011;43337;52.070;4.508;2022-12-11T15:24:59;19.65;;;8.88;;
49029;SDS011;43337;52.070;4.508;2022-12-11T15:27:35;19.73;;;7.70;;
49029;SDS011;43337;52.070;4.508;2022-12-11T15:32:44;16.10;;;7.50;;
49029;SDS011;43337;52.070;4.508;2022-12-11T15:35:23;17.15;;;7.68;;
49029;SDS011;43337;52.070;4.508;2022-12-11T15:37:51;17.95;;;8.02;;
49029;SDS011;43337;52.070;4.508;2022-12-11T15:40:18;28.65;;;10.98;;
49029;SDS011;43337;52.070;4.508;2022-12-11T15:42:43;23.77;;;10.18;;
49029;SDS011;43337;52.070;4.508;2022-12-11T15:45:42;20.15;;;9.27;;
49029;SDS011;43337;52.070;4.508;2022-12-11T15:48:00;27.58;;;10.13;;
49029;SDS011;43337;52.070;4.508;2022-12-11T15:50:26;31.20;;;11.52;;
49029;SDS011;43337;52.070;4.508;2022-12-11T15:52:53;31.27;;;11.75;;
49029;SDS011;43337;52.070;4.508;2022-12-11T15:55:21;32.58;;;13.70;;
49029;SDS011;43337;52.070;4.508;2022-12-11T15:57:49;38.60;;;14.95;;
49029;SDS011;43337;52.070;4.508;2022-12-11T16:00:18;36.63;;;15.10;;
49029;SDS011;43337;52.070;4.508;2022-12-11T16:02:45;40.95;;;16.02;;
49029;SDS011;43337;52.070;4.508;2022-12-11T16:05:11;37.80;;;14.90;;
49029;SDS011;43337;52.070;4.508;2022-12-11T16:07:38;45.38;;;17.40;;